Time;durP1;ratioP1;P1;durP2;ratioP2;P2;SDS_P1;SDS_P2;PMS_P1;PMS_P2;Temp;Humidity;BMP_temperature;BMP_pressure;BME280_temperature;BME280_humidity;BME280_pressure;Samples;Min_cycle;Max_cycle;Signal;HPM_P1;HPM_P2
2022/06/27 00:01:18;;;;;;;26.27;6.38;;;;;;;;;;5052956;28;20037;-69
2022/06/27 00:04:23;;;;;;;38.08;6.88;;;;;;;;;;5053134;28;20045;-69
2022/06/27 00:07:28;;;;;;;34.58;7.25;;;;;;;;;;5052111;28;20037;-69
2022/06/27 00:10:33;;;;;;;30.92;6.32;;;;;;;;;;5053215;28;20045;-69
2022/06/27 00:13:37;;;;;;;26.63;6.53;;;;;;;;;;5052640;28;20036;-69
2022/06/27 00:16:41;;;;;;;29.65;7.38;;;;;;;;;;5052644;28;20057;-69
2022/06/27 00:19:45;;;;;;;27.85;6.18;;;;;;;;;;5051696;28;20033;-69
2022/06/27 00:22:50;;;;;;;23.98;6.15;;;;;;;;;;5052422;28;20053;-69
2022/06/27 00:25:55;;;;;;;26.10;6.55;;;;;;;;;;5052398;28;20056;-68
2022/06/27 00:28:59;;;;;;;25.42;6.50;;;;;;;;;;5052046;28;20384;-69
2022/06/27 00:32:03;;;;;;;23.50;5.95;;;;;;;;;;5051743;28;20044;-69
2022/06/27 00:35:08;;;;;;;33.20;6.50;;;;;;;;;;5052075;28;20037;-68
2022/06/27 00:38:13;;;;;;;30.23;8.02;;;;;;;;;;5052200;28;20511;-69
2022/06/27 00:41:17;;;;;;;21.42;6.28;;;;;;;;;;5052407;28;20480;-68
2022/06/27 00:44:34;;;;;;;26.92;6.05;;;;;;;;;;5052663;28;20056;-69
2022/06/27 00:47:38;;;;;;;25.10;6.95;;;;;;;;;;5052450;28;20041;-68
2022/06/27 00:50:43;;;;;;;39.63;7.53;;;;;;;;;;5051983;28;20045;-69
2022/06/27 00:53:48;;;;;;;30.60;7.20;;;;;;;;;;5052184;28;20036;-68
2022/06/27 00:56:53;;;;;;;30.83;6.35;;;;;;;;;;5051698;28;20056;-69
2022/06/27 00:59:57;;;;;;;18.88;5.10;;;;;;;;;;5052220;28;20052;-69
2022/06/27 01:03:01;;;;;;;20.98;7.00;;;;;;;;;;5051128;28;20053;-69
2022/06/27 01:06:06;;;;;;;23.52;6.13;;;;;;;;;;5052241;28;20037;-69
2022/06/27 01:09:10;;;;;;;24.80;6.13;;;;;;;;;;5051655;28;20032;-69
2022/06/27 01:12:15;;;;;;;20.45;5.93;;;;;;;;;;5051062;28;20039;-68
2022/06/27 01:15:19;;;;;;;20.05;6.15;;;;;;;;;;5051747;28;20047;-69
2022/06/27 01:18:23;;;;;;;26.02;6.60;;;;;;;;;;5050653;28;20536;-69
2022/06/27 01:21:30;;;;;;;21.65;5.75;;;;;;;;;;5051847;28;20045;-69
2022/06/27 01:24:35;;;;;;;28.90;6.20;;;;;;;;;;5051487;28;20040;-69
2022/06/27 01:27:44;;;;;;;28.13;6.10;;;;;;;;;;5051728;28;20045;-69
2022/06/27 01:30:49;;;;;;;29.50;5.80;;;;;;;;;;5050427;28;20284;-69
2022/06/27 01:33:53;;;;;;;21.92;5.32;;;;;;;;;;5050672;28;20382;-69
2022/06/27 01:36:58;;;;;;;18.73;5.47;;;;;;;;;;5051380;28;20028;-69
2022/06/27 01:40:03;;;;;;;29.15;5.93;;;;;;;;;;5039373;28;20052;-69
2022/06/27 01:43:12;;;;;;;25.17;6.53;;;;;;;;;;5050262;28;20041;-69
2022/06/27 01:46:16;;;;;;;24.00;6.25;;;;;;;;;;5050742;28;20052;-69
2022/06/27 01:49:21;;;;;;;20.58;6.47;;;;;;;;;;5050445;28;20037;-69
2022/06/27 01:52:27;;;;;;;20.90;5.85;;;;;;;;;;5051498;28;20495;-69
2022/06/27 01:55:32;;;;;;;25.42;6.38;;;;;;;;;;5050617;28;20036;-69
2022/06/27 01:58:38;;;;;;;25.77;5.07;;;;;;;;;;5050592;28;20489;-69
2022/06/27 02:01:43;;;;;;;29.73;5.88;;;;;;;;;;5052872;28;20040;-69
2022/06/27 02:04:48;;;;;;;23.27;5.60;;;;;;;;;;5050142;28;20045;-68
2022/06/27 02:07:52;;;;;;;29.30;5.68;;;;;;;;;;5050166;28;20040;-69
2022/06/27 02:10:56;;;;;;;19.83;5.95;;;;;;;;;;5050103;28;20507;-69
2022/06/27 02:14:03;;;;;;;21.80;5.45;;;;;;;;;;5049886;28;20512;-68
2022/06/27 02:17:07;;;;;;;20.67;5.32;;;;;;;;;;5050234;28;20047;-69
2022/06/27 02:20:13;;;;;;;23.52;5.78;;;;;;;;;;5050389;28;20033;-68
2022/06/27 02:23:18;;;;;;;36.42;7.03;;;;;;;;;;5050537;28;20563;-68
2022/06/27 02:26:28;;;;;;;22.23;5.43;;;;;;;;;;5049677;28;20127;-68
2022/06/27 02:29:33;;;;;;;21.90;5.90;;;;;;;;;;5050750;28;20044;-69
2022/06/27 02:32:41;;;;;;;26.20;5.18;;;;;;;;;;5051038;28;20044;-68
2022/06/27 02:35:46;;;;;;;17.88;5.18;;;;;;;;;;5049990;28;20071;-68
2022/06/27 02:38:51;;;;;;;20.85;6.05;;;;;;;;;;5050806;28;20033;-69
2022/06/27 02:41:59;;;;;;;33.90;6.28;;;;;;;;;;5051363;28;20067;-68
2022/06/27 02:45:03;;;;;;;32.90;6.20;;;;;;;;;;5054922;28;20037;-68
2022/06/27 02:48:08;;;;;;;27.45;5.60;;;;;;;;;;5053604;28;20033;-69
2022/06/27 02:51:14;;;;;;;22.88;5.05;;;;;;;;;;5054536;28;20473;-68
2022/06/27 02:54:24;;;;;;;23.55;5.80;;;;;;;;;;5054588;28;20366;-68
2022/06/27 02:57:35;;;;;;;19.83;5.80;;;;;;;;;;5053532;28;20511;-68
2022/06/27 03:00:43;;;;;;;22.77;5.60;;;;;;;;;;5053605;28;20033;-68
2022/06/27 03:03:52;;;;;;;18.17;5.50;;;;;;;;;;5053332;28;20046;-68
2022/06/27 03:06:57;;;;;;;27.85;5.40;;;;;;;;;;5053470;28;20037;-68
2022/06/27 03:10:02;;;;;;;19.33;5.78;;;;;;;;;;5053474;28;20037;-69
2022/06/27 03:13:08;;;;;;;40.78;6.82;;;;;;;;;;5053483;28;20060;-69
2022/06/27 03:16:14;;;;;;;33.70;5.78;;;;;;;;;;5054078;28;20037;-68
2022/06/27 03:19:19;;;;;;;33.28;6.05;;;;;;;;;;5053651;28;20389;-68
2022/06/27 03:22:34;;;;;;;24.85;5.90;;;;;;;;;;5053294;28;20053;-68
2022/06/27 03:25:38;;;;;;;28.80;6.43;;;;;;;;;;5052910;28;20056;-69
2022/06/27 03:28:46;;;;;;;77.90;7.40;;;;;;;;;;5053904;28;20402;-69
2022/06/27 03:31:50;;;;;;;30.75;6.78;;;;;;;;;;5052858;28;20382;-69
2022/06/27 03:34:56;;;;;;;44.78;7.28;;;;;;;;;;5052864;28;20424;-69
2022/06/27 03:38:00;;;;;;;33.85;6.68;;;;;;;;;;5052865;28;20049;-69
2022/06/27 03:41:04;;;;;;;31.02;6.03;;;;;;;;;;5052991;28;20049;-68
2022/06/27 03:44:09;;;;;;;30.38;7.53;;;;;;;;;;5052434;28;20059;-69
2022/06/27 03:47:17;;;;;;;26.33;5.97;;;;;;;;;;5052454;28;20033;-68
2022/06/27 03:50:40;;;;;;;42.92;7.82;;;;;;;;;;5054003;28;20037;-69
2022/06/27 03:53:46;;;;;;;32.05;6.53;;;;;;;;;;5052315;28;20044;-68
2022/06/27 03:56:52;;;;;;;25.13;6.15;;;;;;;;;;5052230;28;20052;-69
2022/06/27 03:59:57;;;;;;;26.88;6.10;;;;;;;;;;5052344;28;20044;-69
2022/06/27 04:03:01;;;;;;;25.80;5.47;;;;;;;;;;5052354;28;20060;-68
2022/06/27 04:06:15;;;;;;;21.33;5.78;;;;;;;;;;5052124;28;20041;-69
2022/06/27 04:09:21;;;;;;;22.88;5.35;;;;;;;;;;5052087;28;20124;-69
2022/06/27 04:12:25;;;;;;;33.95;6.78;;;;;;;;;;5053207;28;20037;-68
2022/06/27 04:15:48;;;;;;;26.42;6.32;;;;;;;;;;5052890;28;20516;-69
2022/06/27 04:19:11;;;;;;;36.90;6.45;;;;;;;;;;5052831;28;20047;-69
2022/06/27 04:22:33;;;;;;;25.10;6.60;;;;;;;;;;5052878;28;20060;-69
2022/06/27 04:26:00;;;;;;;34.60;6.20;;;;;;;;;;5052849;28;20115;-69
2022/06/27 04:29:05;;;;;;;25.02;6.28;;;;;;;;;;5040632;28;20056;-69
2022/06/27 04:32:09;;;;;;;32.17;7.55;;;;;;;;;;5051736;28;20041;-68
2022/06/27 04:35:15;;;;;;;31.40;6.97;;;;;;;;;;5051631;28;20037;-69
2022/06/27 04:38:20;;;;;;;32.42;8.10;;;;;;;;;;5052514;28;20033;-69
2022/06/27 04:41:34;;;;;;;41.20;8.13;;;;;;;;;;5052319;28;20052;-68
2022/06/27 04:44:42;;;;;;;24.80;7.05;;;;;;;;;;5052020;28;20049;-69
2022/06/27 04:47:47;;;;;;;27.50;6.47;;;;;;;;;;5051533;28;20052;-68
2022/06/27 04:50:54;;;;;;;52.45;8.27;;;;;;;;;;5052629;28;20416;-69
2022/06/27 04:53:58;;;;;;;30.88;8.02;;;;;;;;;;5051704;28;20067;-68
2022/06/27 04:57:03;;;;;;;31.15;7.70;;;;;;;;;;5051499;28;20029;-69
2022/06/27 05:00:11;;;;;;;42.50;7.63;;;;;;;;;;5051456;28;20503;-69
2022/06/27 05:03:39;;;;;;;37.55;8.60;;;;;;;;;;5051594;28;20052;-69
2022/06/27 05:06:48;;;;;;;39.42;9.15;;;;;;;;;;5051804;28;20036;-69
2022/06/27 05:09:53;;;;;;;44.40;7.85;;;;;;;;;;5051512;28;20041;-69
2022/06/27 05:12:59;;;;;;;48.80;8.27;;;;;;;;;;5051498;28;20036;-68
2022/06/27 05:16:04;;;;;;;53.90;8.13;;;;;;;;;;5051453;28;20040;-68
2022/06/27 05:19:10;;;;;;;49.28;7.72;;;;;;;;;;5051705;28;20033;-68
2022/06/27 05:22:15;;;;;;;40.80;7.60;;;;;;;;;;5051464;28;20037;-68
2022/06/27 05:25:19;;;;;;;40.00;6.85;;;;;;;;;;5051031;28;20056;-69
2022/06/27 05:28:23;;;;;;;57.42;7.57;;;;;;;;;;5050543;28;20428;-68
2022/06/27 05:31:28;;;;;;;42.00;7.80;;;;;;;;;;5050808;28;20049;-69
2022/06/27 05:34:32;;;;;;;52.78;7.50;;;;;;;;;;5051768;28;20396;-69
2022/06/27 05:37:38;;;;;;;47.35;7.95;;;;;;;;;;5051071;28;20048;-69
2022/06/27 05:40:45;;;;;;;43.40;7.60;;;;;;;;;;5050396;28;20044;-61
2022/06/27 05:43:49;;;;;;;42.00;8.18;;;;;;;;;;5038727;28;20052;-61
2022/06/27 05:46:55;;;;;;;91.68;10.70;;;;;;;;;;5050255;28;20520;-62
2022/06/27 05:50:18;;;;;;;206.88;13.75;;;;;;;;;;5050976;28;20036;-62
2022/06/27 05:53:24;;;;;;;112.50;11.82;;;;;;;;;;5050515;28;20044;-62
2022/06/27 05:56:30;;;;;;;60.58;9.82;;;;;;;;;;5050398;28;20044;-62
2022/06/27 05:59:34;;;;;;;65.65;9.15;;;;;;;;;;5050156;28;20373;-62
2022/06/27 06:05:44;;;;;;;75.13;13.07;;;;;;;;;;5334754;23;20501;-59
2022/06/27 06:08:50;;;;;;;90.40;11.75;;;;;;;;;;4992089;28;20045;-59
2022/06/27 06:11:56;;;;;;;78.63;14.27;;;;;;;;;;4991055;28;20045;-59
2022/06/27 06:15:03;;;;;;;64.30;10.15;;;;;;;;;;4990669;28;20405;-61
2022/06/27 06:18:08;;;;;;;38.55;8.25;;;;;;;;;;4990987;28;20061;-62
2022/06/27 06:21:13;;;;;;;44.83;8.35;;;;;;;;;;4990611;28;20458;-62
2022/06/27 06:24:17;;;;;;;30.75;7.75;;;;;;;;;;4990540;28;20058;-61
2022/06/27 06:27:22;;;;;;;62.83;11.45;;;;;;;;;;4990740;28;20382;-61
2022/06/27 06:30:26;;;;;;;49.33;8.50;;;;;;;;;;4990997;28;20532;-60
2022/06/27 06:33:31;;;;;;;37.97;7.97;;;;;;;;;;4990456;28;20394;-60
2022/06/27 06:36:37;;;;;;;41.22;8.23;;;;;;;;;;4990593;28;20084;-59
2022/06/27 06:39:41;;;;;;;51.03;9.00;;;;;;;;;;4991038;28;20038;-59
2022/06/27 06:42:45;;;;;;;43.65;8.15;;;;;;;;;;4989911;28;20054;-61
2022/06/27 06:46:10;;;;;;;44.30;7.93;;;;;;;;;;4971540;28;20042;-60
2022/06/27 06:49:21;;;;;;;34.20;7.88;;;;;;;;;;4990576;28;20034;-61
2022/06/27 06:52:27;;;;;;;34.35;8.10;;;;;;;;;;4991217;28;20039;-61
2022/06/27 06:55:32;;;;;;;31.60;7.60;;;;;;;;;;4991328;28;20030;-61
2022/06/27 06:58:36;;;;;;;40.92;7.65;;;;;;;;;;4991463;28;20050;-60
2022/06/27 07:01:41;;;;;;;42.08;7.82;;;;;;;;;;4991356;28;20041;-61
2022/06/27 07:04:47;;;;;;;40.83;9.10;;;;;;;;;;4991198;28;20051;-60
2022/06/27 07:07:52;;;;;;;39.40;9.48;;;;;;;;;;4991431;28;20055;-60
2022/06/27 07:10:57;;;;;;;45.22;8.98;;;;;;;;;;4990943;28;20035;-60
2022/06/27 07:14:01;;;;;;;52.50;9.52;;;;;;;;;;4990918;28;20034;-61
2022/06/27 07:17:05;;;;;;;56.55;8.40;;;;;;;;;;4991018;28;20042;-61
2022/06/27 07:20:10;;;;;;;37.70;8.18;;;;;;;;;;4990940;28;20046;-61
2022/06/27 07:23:15;;;;;;;45.22;8.25;;;;;;;;;;4991029;28;20229;-59
2022/06/27 07:26:20;;;;;;;44.40;8.50;;;;;;;;;;4991335;28;20038;-59
2022/06/27 07:29:25;;;;;;;44.67;8.50;;;;;;;;;;4993878;28;20042;-59
2022/06/27 07:32:29;;;;;;;46.20;9.50;;;;;;;;;;4994263;28;20046;-60
2022/06/27 07:35:34;;;;;;;40.30;8.02;;;;;;;;;;4994267;28;20049;-59
2022/06/27 07:38:38;;;;;;;35.03;8.63;;;;;;;;;;4994417;28;20041;-59
2022/06/27 07:41:44;;;;;;;44.22;8.85;;;;;;;;;;4994180;28;20059;-59
2022/06/27 07:44:49;;;;;;;37.72;7.60;;;;;;;;;;4994045;28;20050;-60
2022/06/27 07:47:54;;;;;;;48.28;7.75;;;;;;;;;;4994362;28;20034;-59
2022/06/27 07:50:59;;;;;;;36.78;7.60;;;;;;;;;;4993903;28;20046;-59
2022/06/27 07:54:03;;;;;;;38.92;7.93;;;;;;;;;;4994001;28;20050;-59
2022/06/27 07:57:08;;;;;;;44.83;8.25;;;;;;;;;;4994030;28;20122;-60
2022/06/27 08:00:12;;;;;;;37.03;6.78;;;;;;;;;;4994037;28;20620;-59
2022/06/27 08:06:41;;;;;;;48.42;7.78;;;;;;;;;;4993287;28;20143;-59
2022/06/27 08:09:46;;;;;;;37.00;7.95;;;;;;;;;;4993679;28;20050;-59
2022/06/27 08:12:50;;;;;;;51.05;7.70;;;;;;;;;;4994059;28;20046;-59
2022/06/27 08:15:55;;;;;;;31.88;7.15;;;;;;;;;;4993772;28;20508;-59
2022/06/27 08:19:00;;;;;;;44.08;7.85;;;;;;;;;;4993904;28;20045;-59
2022/06/27 08:22:04;;;;;;;31.02;6.90;;;;;;;;;;4993784;28;20052;-60
2022/06/27 08:25:09;;;;;;;37.53;7.28;;;;;;;;;;4993504;28;20057;-60
2022/06/27 08:28:14;;;;;;;31.42;7.22;;;;;;;;;;4993476;28;20042;-60
2022/06/27 08:31:19;;;;;;;33.40;7.13;;;;;;;;;;4993424;28;20046;-60
2022/06/27 08:34:24;;;;;;;26.55;6.38;;;;;;;;;;4993351;28;20049;-59
2022/06/27 08:37:28;;;;;;;21.70;6.18;;;;;;;;;;4993022;28;20049;-59
2022/06/27 08:40:33;;;;;;;34.20;7.30;;;;;;;;;;4992218;28;20045;-59
2022/06/27 08:43:38;;;;;;;48.03;8.30;;;;;;;;;;4993048;28;20042;-59
2022/06/27 08:46:46;;;;;;;35.72;7.45;;;;;;;;;;4992964;28;20034;-59
2022/06/27 08:49:52;;;;;;;33.47;7.10;;;;;;;;;;4993048;28;20047;-59
2022/06/27 08:52:58;;;;;;;24.67;6.53;;;;;;;;;;4992797;28;20050;-60
2022/06/27 08:56:05;;;;;;;35.90;6.05;;;;;;;;;;4992600;28;20042;-60
2022/06/27 08:59:09;;;;;;;33.95;5.90;;;;;;;;;;4992626;28;20397;-59
2022/06/27 09:02:17;;;;;;;29.85;7.22;;;;;;;;;;4992722;28;20045;-60
2022/06/27 09:05:26;;;;;;;36.92;7.50;;;;;;;;;;4992444;28;20057;-60
2022/06/27 09:08:32;;;;;;;33.25;6.55;;;;;;;;;;4992171;28;20045;-60
2022/06/27 09:11:37;;;;;;;35.05;7.18;;;;;;;;;;4992746;28;20057;-61
2022/06/27 09:14:43;;;;;;;34.30;7.00;;;;;;;;;;4992114;28;20041;-61
2022/06/27 09:18:04;;;;;;;34.63;6.70;;;;;;;;;;4991519;28;20063;-61
2022/06/27 09:21:09;;;;;;;26.38;7.05;;;;;;;;;;4992430;28;20034;-61
2022/06/27 09:24:14;;;;;;;26.70;6.85;;;;;;;;;;4992057;28;20407;-62
2022/06/27 09:27:35;;;;;;;27.48;7.10;;;;;;;;;;4991127;28;20038;-62
2022/06/27 09:30:40;;;;;;;30.58;6.38;;;;;;;;;;4991667;28;20057;-61
2022/06/27 09:33:59;;;;;;;26.02;5.43;;;;;;;;;;4991756;28;20034;-63
2022/06/27 09:37:03;;;;;;;30.85;6.93;;;;;;;;;;4991964;28;20434;-61
2022/06/27 09:40:08;;;;;;;28.13;5.47;;;;;;;;;;4991674;28;20399;-61
2022/06/27 09:43:16;;;;;;;23.13;4.78;;;;;;;;;;4992107;28;20046;-62
2022/06/27 09:46:25;;;;;;;25.77;5.45;;;;;;;;;;4991945;28;20038;-62
2022/06/27 09:49:31;;;;;;;31.92;7.20;;;;;;;;;;4992051;28;20038;-61
2022/06/27 09:52:36;;;;;;;37.00;6.50;;;;;;;;;;4991715;28;20046;-61
2022/06/27 09:55:42;;;;;;;41.05;6.10;;;;;;;;;;4992010;28;20049;-61
2022/06/27 09:58:47;;;;;;;44.08;7.25;;;;;;;;;;4991950;28;20034;-61
2022/06/27 10:01:52;;;;;;;36.25;6.78;;;;;;;;;;4991981;28;20041;-63
2022/06/27 10:04:57;;;;;;;36.92;6.50;;;;;;;;;;4991332;28;20061;-61
2022/06/27 10:08:03;;;;;;;30.02;7.38;;;;;;;;;;4992053;28;20038;-61
2022/06/27 10:11:08;;;;;;;23.30;5.80;;;;;;;;;;4991420;28;20042;-60
2022/06/27 10:14:15;;;;;;;33.60;6.45;;;;;;;;;;4991587;28;20034;-61
2022/06/27 10:17:24;;;;;;;35.58;6.25;;;;;;;;;;4991911;28;20122;-61
2022/06/27 10:20:29;;;;;;;37.15;6.40;;;;;;;;;;4991568;28;20039;-61
2022/06/27 10:23:37;;;;;;;27.52;6.25;;;;;;;;;;4991727;28;20057;-61
2022/06/27 10:26:42;;;;;;;22.58;6.18;;;;;;;;;;4990826;28;20043;-60
2022/06/27 10:29:47;;;;;;;23.20;5.82;;;;;;;;;;4991600;28;20050;-61
2022/06/27 10:32:51;;;;;;;23.52;6.05;;;;;;;;;;4991284;28;20049;-61
2022/06/27 10:39:01;;;;;;;19.35;5.03;;;;;;;;;;4991405;28;20039;-61
2022/06/27 10:42:27;;;;;;;30.42;6.03;;;;;;;;;;4991550;28;20046;-61
2022/06/27 10:45:31;;;;;;;30.83;5.30;;;;;;;;;;4991208;28;20046;-61
2022/06/27 10:48:40;;;;;;;23.73;5.30;;;;;;;;;;4991379;28;20042;-61
2022/06/27 10:51:46;;;;;;;33.10;5.67;;;;;;;;;;4991321;28;20046;-61
2022/06/27 10:54:51;;;;;;;33.03;6.00;;;;;;;;;;4991118;28;20046;-61
2022/06/27 10:57:57;;;;;;;29.40;6.45;;;;;;;;;;4991442;28;20042;-60
2022/06/27 11:01:15;;;;;;;40.17;7.07;;;;;;;;;;4991020;28;20053;-60
2022/06/27 11:04:25;;;;;;;36.92;6.07;;;;;;;;;;4993713;28;20055;-60
2022/06/27 11:07:30;;;;;;;31.98;5.38;;;;;;;;;;4995064;28;20540;-60
2022/06/27 11:10:36;;;;;;;22.63;5.57;;;;;;;;;;4994699;28;20049;-60
2022/06/27 11:13:47;;;;;;;29.02;5.97;;;;;;;;;;4994881;28;20059;-60
2022/06/27 11:16:52;;;;;;;41.38;5.88;;;;;;;;;;4994533;28;20049;-60
2022/06/27 11:20:11;;;;;;;31.65;5.63;;;;;;;;;;4994498;28;20041;-60
2022/06/27 11:23:15;;;;;;;41.13;6.35;;;;;;;;;;4994403;28;20042;-60
2022/06/27 11:26:21;;;;;;;39.17;6.15;;;;;;;;;;4994561;28;20387;-60
2022/06/27 11:32:48;;;;;;;28.38;5.88;;;;;;;;;;4994799;28;20119;-60
2022/06/27 11:35:55;;;;;;;28.38;6.45;;;;;;;;;;4994536;28;20050;-60
2022/06/27 11:39:00;;;;;;;36.40;6.32;;;;;;;;;;4994812;28;20053;-60
2022/06/27 11:42:11;;;;;;;31.08;5.32;;;;;;;;;;4994752;28;20054;-60
2022/06/27 11:45:15;;;;;;;40.60;6.45;;;;;;;;;;4994111;28;20050;-60
2022/06/27 11:48:20;;;;;;;40.90;6.50;;;;;;;;;;4994583;28;20504;-60
2022/06/27 11:51:26;;;;;;;43.75;6.72;;;;;;;;;;4994394;28;20038;-60
2022/06/27 11:54:38;;;;;;;40.28;7.57;;;;;;;;;;4994071;28;20038;-60
2022/06/27 11:57:47;;;;;;;31.10;7.68;;;;;;;;;;4993068;28;20041;-60
2022/06/27 12:00:51;;;;;;;36.55;6.05;;;;;;;;;;4994040;28;20366;-61
2022/06/27 12:04:06;;;;;;;32.22;6.15;;;;;;;;;;4993913;28;20126;-61
2022/06/27 12:07:10;;;;;;;37.30;7.45;;;;;;;;;;4994017;28;20069;-60
2022/06/27 12:10:15;;;;;;;38.28;6.88;;;;;;;;;;4993746;28;20041;-62
2022/06/27 12:13:19;;;;;;;31.45;6.35;;;;;;;;;;4993454;28;20053;-61
2022/06/27 12:16:23;;;;;;;33.88;7.32;;;;;;;;;;4993604;28;20034;-62
2022/06/27 12:19:29;;;;;;;36.75;7.68;;;;;;;;;;4993784;28;20406;-61
2022/06/27 12:22:33;;;;;;;28.50;7.53;;;;;;;;;;4993726;28;20053;-60
2022/06/27 12:25:41;;;;;;;39.85;7.68;;;;;;;;;;4993320;28;20383;-61
2022/06/27 12:28:46;;;;;;;41.92;7.93;;;;;;;;;;4993698;28;20053;-61
2022/06/27 12:31:51;;;;;;;37.53;8.20;;;;;;;;;;4993495;28;20550;-61
2022/06/27 12:34:55;;;;;;;41.00;9.02;;;;;;;;;;4993704;28;20051;-61
2022/06/27 12:38:00;;;;;;;50.55;8.85;;;;;;;;;;4993747;28;20401;-60
2022/06/27 12:41:17;;;;;;;34.38;9.18;;;;;;;;;;4993636;28;20042;-61
2022/06/27 12:44:21;;;;;;;31.60;8.40;;;;;;;;;;4993136;28;20053;-61
2022/06/27 12:47:25;;;;;;;40.10;9.27;;;;;;;;;;4993244;28;20039;-61
2022/06/27 12:50:30;;;;;;;42.60;8.10;;;;;;;;;;4993455;28;20034;-61
2022/06/27 12:53:34;;;;;;;31.48;8.73;;;;;;;;;;4993003;28;20046;-61
2022/06/27 12:56:38;;;;;;;38.17;8.40;;;;;;;;;;4993075;28;20038;-60
2022/06/27 12:59:43;;;;;;;37.47;7.93;;;;;;;;;;4993016;28;20053;-61
2022/06/27 13:02:48;;;;;;;37.13;7.93;;;;;;;;;;4992917;28;20086;-61
2022/06/27 13:05:52;;;;;;;45.53;9.20;;;;;;;;;;4991716;28;20054;-62
2022/06/27 13:08:56;;;;;;;47.55;7.68;;;;;;;;;;4993069;28;20501;-61
2022/06/27 13:12:01;;;;;;;49.03;8.63;;;;;;;;;;4992804;28;20363;-61
2022/06/27 13:15:06;;;;;;;44.75;8.40;;;;;;;;;;4993045;28;20030;-61
2022/06/27 13:18:10;;;;;;;47.78;8.35;;;;;;;;;;4992778;28;20053;-61
2022/06/27 13:21:14;;;;;;;39.78;8.15;;;;;;;;;;4992486;28;20493;-60
2022/06/27 13:24:19;;;;;;;52.70;9.35;;;;;;;;;;4992312;28;20054;-61
2022/06/27 13:27:23;;;;;;;34.92;6.93;;;;;;;;;;4991938;28;20045;-61
2022/06/27 13:30:27;;;;;;;43.05;6.97;;;;;;;;;;4992623;28;20057;-61
2022/06/27 13:33:31;;;;;;;41.47;6.25;;;;;;;;;;4992381;28;20494;-61
2022/06/27 13:36:36;;;;;;;38.00;6.25;;;;;;;;;;4992493;28;20042;-61
2022/06/27 13:39:40;;;;;;;49.03;7.55;;;;;;;;;;4992407;28;20488;-61
2022/06/27 13:42:44;;;;;;;37.55;7.72;;;;;;;;;;4991987;28;20030;-61
2022/06/27 13:45:49;;;;;;;36.88;7.25;;;;;;;;;;4992004;28;20065;-61
2022/06/27 13:48:53;;;;;;;46.53;7.80;;;;;;;;;;4992260;28;20046;-60
2022/06/27 13:51:57;;;;;;;33.22;6.10;;;;;;;;;;4992383;28;20038;-59
2022/06/27 13:55:02;;;;;;;42.58;7.88;;;;;;;;;;4992326;28;20042;-59
2022/06/27 13:58:07;;;;;;;39.20;6.78;;;;;;;;;;4992231;28;20053;-60
2022/06/27 14:01:13;;;;;;;34.45;6.10;;;;;;;;;;4991828;28;20046;-61
2022/06/27 14:04:17;;;;;;;36.47;7.72;;;;;;;;;;4991578;28;20405;-61
2022/06/27 14:07:38;;;;;;;45.03;8.05;;;;;;;;;;4991920;28;20054;-60
2022/06/27 14:10:54;;;;;;;49.50;7.30;;;;;;;;;;4991593;28;20520;-60
2022/06/27 14:13:59;;;;;;;42.75;7.00;;;;;;;;;;4991590;28;20035;-60
2022/06/27 14:17:04;;;;;;;43.67;6.00;;;;;;;;;;4991939;28;20057;-60
2022/06/27 14:20:09;;;;;;;37.13;5.90;;;;;;;;;;4991493;28;20054;-59
2022/06/27 14:23:13;;;;;;;35.55;7.47;;;;;;;;;;4991528;28;20394;-59
2022/06/27 14:26:18;;;;;;;34.03;7.03;;;;;;;;;;4991364;28;20042;-60
2022/06/27 14:29:22;;;;;;;46.08;7.55;;;;;;;;;;4991458;28;20038;-60
2022/06/27 14:32:26;;;;;;;47.35;7.43;;;;;;;;;;4991468;28;20424;-60
2022/06/27 14:35:31;;;;;;;49.78;8.25;;;;;;;;;;4990815;28;20045;-60
2022/06/27 14:38:36;;;;;;;44.80;7.25;;;;;;;;;;4993454;28;20402;-60
2022/06/27 14:41:41;;;;;;;48.35;7.13;;;;;;;;;;4995578;28;20034;-61
2022/06/27 14:44:45;;;;;;;44.85;8.25;;;;;;;;;;4994840;28;20525;-60
2022/06/27 14:47:50;;;;;;;36.85;7.10;;;;;;;;;;4994103;28;20053;-60
2022/06/27 14:50:54;;;;;;;42.67;6.80;;;;;;;;;;4994892;28;20049;-60
2022/06/27 14:53:59;;;;;;;32.92;6.38;;;;;;;;;;4995188;28;20222;-60
2022/06/27 14:57:04;;;;;;;44.72;6.80;;;;;;;;;;4994975;28;20058;-60
2022/06/27 15:00:08;;;;;;;31.17;6.03;;;;;;;;;;4994092;28;20054;-60
2022/06/27 15:03:13;;;;;;;47.35;6.65;;;;;;;;;;4995343;28;20038;-61
2022/06/27 15:06:20;;;;;;;38.45;5.57;;;;;;;;;;4994749;28;20050;-60
2022/06/27 15:09:28;;;;;;;44.28;6.68;;;;;;;;;;4995205;28;20034;-60
2022/06/27 15:12:32;;;;;;;32.38;6.75;;;;;;;;;;4994869;28;20045;-60
2022/06/27 15:15:36;;;;;;;26.52;5.13;;;;;;;;;;4995195;28;20057;-61
2022/06/27 15:18:41;;;;;;;31.45;5.65;;;;;;;;;;4994521;28;20417;-60
2022/06/27 15:21:45;;;;;;;43.10;6.90;;;;;;;;;;4994903;28;20050;-60
2022/06/27 15:24:50;;;;;;;41.55;6.85;;;;;;;;;;4994296;28;20054;-60
2022/06/27 15:27:54;;;;;;;30.70;6.03;;;;;;;;;;4994600;28;20038;-60
2022/06/27 15:30:59;;;;;;;29.80;5.85;;;;;;;;;;4993570;28;20030;-61
2022/06/27 15:34:04;;;;;;;45.03;7.40;;;;;;;;;;4994296;28;20051;-62
2022/06/27 15:37:08;;;;;;;39.78;6.55;;;;;;;;;;4994698;28;20039;-60
2022/06/27 15:40:13;;;;;;;78.15;46.55;;;;;;;;;;4994538;28;20062;-61
2022/06/27 15:43:18;;;;;;;49.80;13.35;;;;;;;;;;4994054;28;20046;-61
2022/06/27 15:46:22;;;;;;;37.05;6.28;;;;;;;;;;4993941;28;20053;-61
2022/06/27 15:49:26;;;;;;;55.75;8.75;;;;;;;;;;4993585;28;20041;-62
2022/06/27 15:52:35;;;;;;;45.55;7.05;;;;;;;;;;4994132;28;20038;-61
2022/06/27 15:55:40;;;;;;;29.77;5.93;;;;;;;;;;4994131;28;20055;-61
2022/06/27 15:58:44;;;;;;;45.10;6.78;;;;;;;;;;4994211;28;20038;-60
2022/06/27 16:01:49;;;;;;;64.85;9.23;;;;;;;;;;4994115;28;20046;-60
2022/06/27 16:04:54;;;;;;;35.28;6.85;;;;;;;;;;4993512;28;20494;-61
2022/06/27 16:07:58;;;;;;;42.22;7.60;;;;;;;;;;4993978;28;20054;-62
2022/06/27 16:11:02;;;;;;;42.20;7.30;;;;;;;;;;4993633;28;20495;-61
2022/06/27 16:14:07;;;;;;;38.85;7.10;;;;;;;;;;4993760;28;20058;-60
2022/06/27 16:17:11;;;;;;;31.88;6.32;;;;;;;;;;4993730;28;20045;-60
2022/06/27 16:20:16;;;;;;;40.15;7.38;;;;;;;;;;4992715;28;20046;-59
2022/06/27 16:23:21;;;;;;;46.13;6.72;;;;;;;;;;4993677;28;20042;-61
2022/06/27 16:26:25;;;;;;;40.88;5.68;;;;;;;;;;4993204;28;20042;-59
2022/06/27 16:29:29;;;;;;;40.58;7.97;;;;;;;;;;4993048;28;20043;-61
2022/06/27 16:32:34;;;;;;;35.88;6.22;;;;;;;;;;4993160;28;20038;-61
2022/06/27 16:35:38;;;;;;;42.20;6.47;;;;;;;;;;4993374;28;20038;-61
2022/06/27 16:38:43;;;;;;;47.25;6.80;;;;;;;;;;4993227;28;20045;-61
2022/06/27 16:45:10;;;;;;;45.38;7.03;;;;;;;;;;4993091;28;20073;-61
2022/06/27 16:48:16;;;;;;;45.92;6.80;;;;;;;;;;4993411;28;20357;-59
2022/06/27 16:51:20;;;;;;;34.47;6.75;;;;;;;;;;4992965;28;20034;-62
2022/06/27 16:54:24;;;;;;;48.05;7.95;;;;;;;;;;4992672;28;20039;-61
2022/06/27 16:57:29;;;;;;;43.42;6.63;;;;;;;;;;4991617;28;20408;-60
2022/06/27 17:00:35;;;;;;;41.53;6.47;;;;;;;;;;4991999;28;20033;-59
2022/06/27 17:03:40;;;;;;;41.10;6.63;;;;;;;;;;4992551;28;20054;-59
2022/06/27 17:06:44;;;;;;;31.05;5.97;;;;;;;;;;4992966;28;20050;-59
2022/06/27 17:09:49;;;;;;;30.52;6.45;;;;;;;;;;4992715;28;20437;-59
2022/06/27 17:12:53;;;;;;;34.80;6.88;;;;;;;;;;4992605;28;20050;-59
2022/06/27 17:15:58;;;;;;;51.58;8.05;;;;;;;;;;4992270;28;20493;-60
2022/06/27 17:19:02;;;;;;;42.30;7.10;;;;;;;;;;4992847;28;20047;-60
2022/06/27 17:22:06;;;;;;;44.28;8.20;;;;;;;;;;4992350;28;20038;-60
2022/06/27 17:25:10;;;;;;;43.25;6.97;;;;;;;;;;4991373;28;20050;-60
2022/06/27 17:28:17;;;;;;;50.45;8.35;;;;;;;;;;4992142;28;20038;-60
2022/06/27 17:31:22;;;;;;;46.75;7.40;;;;;;;;;;4992093;28;20057;-59
2022/06/27 17:34:26;;;;;;;45.15;7.05;;;;;;;;;;4992247;28;20046;-60
2022/06/27 17:37:31;;;;;;;39.58;7.22;;;;;;;;;;4992364;28;20045;-60
2022/06/27 17:40:35;;;;;;;70.80;8.40;;;;;;;;;;4992369;28;20050;-60
2022/06/27 17:43:39;;;;;;;38.33;6.82;;;;;;;;;;4992100;28;20432;-59
2022/06/27 17:46:44;;;;;;;42.08;7.57;;;;;;;;;;4991985;28;20042;-60
2022/06/27 17:49:49;;;;;;;43.85;7.57;;;;;;;;;;4992006;28;20496;-60
2022/06/27 17:52:53;;;;;;;55.53;8.77;;;;;;;;;;4991654;28;20046;-60
2022/06/27 17:55:57;;;;;;;56.55;7.70;;;;;;;;;;4991451;28;20512;-60
2022/06/27 17:59:01;;;;;;;44.63;7.80;;;;;;;;;;4991262;28;20407;-60
2022/06/27 18:02:06;;;;;;;54.63;8.13;;;;;;;;;;4991357;28;20038;-60
2022/06/27 18:05:11;;;;;;;52.78;7.00;;;;;;;;;;4991200;28;20057;-60
2022/06/27 18:08:15;;;;;;;40.28;6.47;;;;;;;;;;4992186;28;20042;-60
2022/06/27 18:11:20;;;;;;;50.13;8.07;;;;;;;;;;4991753;28;20509;-60
2022/06/27 18:14:24;;;;;;;42.95;6.85;;;;;;;;;;4991634;28;20046;-60
2022/06/27 18:17:28;;;;;;;49.90;7.35;;;;;;;;;;4991495;28;20042;-60
2022/06/27 18:20:35;;;;;;;41.08;7.53;;;;;;;;;;4991505;28;20048;-60
2022/06/27 18:23:40;;;;;;;37.38;7.18;;;;;;;;;;4991431;28;20058;-60
2022/06/27 18:26:44;;;;;;;38.97;7.15;;;;;;;;;;4991370;28;20402;-60
2022/06/27 18:29:48;;;;;;;45.83;6.53;;;;;;;;;;4991676;28;20529;-59
2022/06/27 18:32:53;;;;;;;37.78;7.35;;;;;;;;;;4991709;28;20042;-60